Time;durP1;ratioP1;P1;durP2;ratioP2;P2;SDS_P1;SDS_P2;PMS_P1;PMS_P2;Temp;Humidity;BMP_temperature;BMP_pressure;BME280_temperature;BME280_humidity;BME280_pressure;Samples;Min_cycle;Max_cycle;Signal;HPM_P1;HPM_P2
2023/05/11 00:01:29;;;;;;;1.67;0.87;;;24.40;65.50;;;;;;5069609;28;20472;-71
2023/05/11 00:03:57;;;;;;;1.10;0.90;;;24.40;65.50;;;;;;5056117;28;20865;-71
2023/05/11 00:06:27;;;;;;;1.00;0.90;;;24.40;65.50;;;;;;5073717;28;20434;-71
2023/05/11 00:08:55;;;;;;;1.43;1.10;;;24.40;65.50;;;;;;5073727;28;20946;-71
2023/05/11 00:11:23;;;;;;;1.03;1.03;;;24.40;65.50;;;;;;5073101;28;20500;-70
2023/05/11 00:13:52;;;;;;;1.30;1.20;;;24.40;65.40;;;;;;5061427;28;20451;-70
2023/05/11 00:16:20;;;;;;;1.03;0.93;;;24.40;65.40;;;;;;5072955;28;20432;-70
2023/05/11 00:18:48;;;;;;;1.13;1.03;;;24.40;65.40;;;;;;5073490;28;20453;-70
2023/05/11 00:21:17;;;;;;;1.10;1.00;;;24.40;65.40;;;;;;5072307;28;20474;-70
2023/05/11 00:23:46;;;;;;;1.20;1.10;;;24.40;65.40;;;;;;5073777;28;20836;-70
2023/05/11 00:26:14;;;;;;;1.00;0.90;;;24.40;65.50;;;;;;5068772;28;20481;-70
2023/05/11 00:28:44;;;;;;;1.37;1.20;;;24.40;65.40;;;;;;5052821;28;20448;-70
2023/05/11 00:31:12;;;;;;;1.30;0.97;;;24.40;65.40;;;;;;5066534;28;20481;-70
2023/05/11 00:33:40;;;;;;;1.43;1.03;;;24.40;65.40;;;;;;5072432;28;20493;-70
2023/05/11 00:36:08;;;;;;;0.80;0.80;;;24.40;65.40;;;;;;5073296;28;20444;-70
2023/05/11 00:38:39;;;;;;;1.60;1.10;;;24.40;65.40;;;;;;5073294;28;20883;-70
2023/05/11 00:41:09;;;;;;;1.10;1.00;;;24.40;65.40;;;;;;5053762;28;21020;-70
2023/05/11 00:43:37;;;;;;;0.90;0.90;;;24.40;65.40;;;;;;5070543;28;21001;-70
2023/05/11 00:46:05;;;;;;;1.53;1.03;;;24.40;65.40;;;;;;5058136;28;20443;-70
2023/05/11 00:48:34;;;;;;;1.37;1.10;;;24.40;65.40;;;;;;5065209;28;20943;-70
2023/05/11 00:51:03;;;;;;;0.97;0.97;;;24.40;65.40;;;;;;5071423;28;21095;-70
2023/05/11 00:53:31;;;;;;;1.93;0.90;;;24.40;65.40;;;;;;5054972;28;20461;-70
2023/05/11 00:56:00;;;;;;;0.77;0.77;;;24.40;65.40;;;;;;5054854;28;20546;-70
2023/05/11 00:58:31;;;;;;;2.20;0.90;;;24.30;65.40;;;;;;5072122;28;20459;-71
2023/05/11 01:00:59;;;;;;;1.60;1.17;;;24.40;65.40;;;;;;5070955;28;20454;-70
2023/05/11 01:03:28;;;;;;;3.10;0.77;;;24.40;65.40;;;;;;5054692;28;20492;-70
2023/05/11 01:06:08;;;;;;;0.80;0.80;;;24.30;65.40;;;;;;5072375;28;20480;-70
2023/05/11 01:08:42;;;;;;;0.57;0.50;;;24.30;65.40;;;;;;5055007;28;20948;-70
2023/05/11 01:11:17;;;;;;;1.53;0.70;;;24.30;65.40;;;;;;5069768;28;20517;-70
2023/05/11 01:13:52;;;;;;;2.17;1.00;;;24.30;65.40;;;;;;5048611;28;20504;-71
2023/05/11 01:16:23;;;;;;;1.97;1.20;;;24.30;65.40;;;;;;5054046;28;20543;-71
2023/05/11 01:19:00;;;;;;;0.80;0.80;;;24.30;65.40;;;;;;5054259;28;20463;-71
2023/05/11 01:21:33;;;;;;;1.53;0.90;;;24.30;65.40;;;;;;5053450;28;21286;-71
2023/05/11 01:24:37;;;;;;;1.07;0.90;;;24.30;65.40;;;;;;5052851;28;20448;-71
2023/05/11 01:27:31;;;;;;;3.23;0.83;;;24.30;65.40;;;;;;5019978;28;20486;-71
2023/05/11 01:30:24;;;;;;;1.13;1.00;;;24.30;65.40;;;;;;5052920;28;20482;-70
2023/05/11 01:32:55;;;;;;;1.40;0.80;;;24.30;65.40;;;;;;5070816;28;20493;-71
2023/05/11 01:35:26;;;;;;;0.90;0.90;;;24.30;65.40;;;;;;5054316;28;20447;-71
2023/05/11 01:37:57;;;;;;;0.90;0.80;;;24.30;65.30;;;;;;5065274;28;20456;-70
2023/05/11 01:40:29;;;;;;;0.70;0.70;;;24.30;65.30;;;;;;5072405;28;20449;-71
2023/05/11 01:43:01;;;;;;;0.80;0.80;;;24.30;65.30;;;;;;5071282;28;20898;-70
2023/05/11 01:45:34;;;;;;;1.83;1.03;;;24.30;65.30;;;;;;5071268;28;20517;-70
2023/05/11 01:48:06;;;;;;;2.00;1.00;;;24.30;65.30;;;;;;5070705;28;20497;-70
2023/05/11 01:50:37;;;;;;;0.90;0.90;;;24.30;65.30;;;;;;5071001;28;20874;-71
2023/05/11 01:53:08;;;;;;;1.00;0.90;;;24.30;65.30;;;;;;5069761;28;20494;-71
2023/05/11 01:55:39;;;;;;;2.40;0.90;;;24.30;65.30;;;;;;5052761;28;20958;-70
2023/05/11 01:58:09;;;;;;;0.77;0.70;;;24.30;65.30;;;;;;5071709;28;20492;-71
2023/05/11 02:00:39;;;;;;;1.00;0.90;;;24.20;65.30;;;;;;5071523;28;20435;-70
2023/05/11 02:03:09;;;;;;;0.80;0.73;;;24.20;65.30;;;;;;5071975;28;20471;-70
2023/05/11 02:05:40;;;;;;;1.07;0.90;;;24.20;65.30;;;;;;5070556;28;20451;-70
2023/05/11 02:08:09;;;;;;;0.80;0.80;;;24.20;65.30;;;;;;5046369;28;20458;-71
2023/05/11 02:10:40;;;;;;;0.80;0.80;;;24.20;65.30;;;;;;5051057;28;20565;-70
2023/05/11 02:13:09;;;;;;;1.07;0.97;;;24.20;65.30;;;;;;5033578;28;20458;-70
2023/05/11 02:15:42;;;;;;;0.73;0.73;;;24.20;65.30;;;;;;5064609;28;20554;-70
2023/05/11 02:18:14;;;;;;;0.60;0.60;;;24.20;65.30;;;;;;5053295;28;20818;-71
2023/05/11 02:20:45;;;;;;;0.70;0.70;;;24.20;65.20;;;;;;5053619;28;20468;-70
2023/05/11 02:23:14;;;;;;;1.07;0.97;;;24.20;65.30;;;;;;5053510;28;20453;-70
2023/05/11 02:25:43;;;;;;;0.80;0.80;;;24.20;65.20;;;;;;5051009;28;20494;-70
2023/05/11 02:28:11;;;;;;;1.10;0.87;;;24.20;65.20;;;;;;5071134;28;20457;-70
2023/05/11 02:30:44;;;;;;;3.70;0.90;;;24.20;65.20;;;;;;5071200;28;20476;-70
2023/05/11 02:33:19;;;;;;;1.50;1.03;;;24.20;65.20;;;;;;5047439;28;20472;-70
2023/05/11 02:35:49;;;;;;;0.70;0.70;;;24.20;65.20;;;;;;5054924;28;20837;-70
2023/05/11 02:38:18;;;;;;;2.13;1.03;;;24.20;65.20;;;;;;5061819;28;20441;-70
2023/05/11 02:40:50;;;;;;;0.70;0.70;;;24.20;65.20;;;;;;5033576;28;20454;-70
2023/05/11 02:43:24;;;;;;;1.20;1.20;;;24.20;65.20;;;;;;5039197;28;20823;-71
2023/05/11 02:46:02;;;;;;;0.60;0.60;;;24.20;65.20;;;;;;5052156;28;20514;-70
2023/05/11 02:48:38;;;;;;;1.17;1.10;;;24.20;65.20;;;;;;5055403;28;20890;-70
2023/05/11 02:51:10;;;;;;;1.20;0.83;;;24.20;65.10;;;;;;5056029;28;20483;-70
2023/05/11 02:53:45;;;;;;;0.80;0.80;;;24.20;65.20;;;;;;5052889;28;20557;-70
2023/05/11 02:56:14;;;;;;;0.80;0.80;;;24.20;65.10;;;;;;5052338;28;20826;-70
2023/05/11 02:58:42;;;;;;;0.80;0.70;;;24.20;65.10;;;;;;5070973;28;20440;-70
2023/05/11 03:01:20;;;;;;;0.80;0.80;;;24.20;65.10;;;;;;5053202;28;20447;-70
2023/05/11 03:03:48;;;;;;;1.33;1.23;;;24.20;65.10;;;;;;5070657;28;20955;-70
2023/05/11 03:06:17;;;;;;;0.63;0.60;;;24.20;65.10;;;;;;5052417;28;20510;-70
2023/05/11 03:08:46;;;;;;;0.90;0.90;;;24.20;65.10;;;;;;5074239;28;20803;-70
2023/05/11 03:11:18;;;;;;;0.90;0.90;;;24.20;65.10;;;;;;5056301;28;20506;-70
2023/05/11 03:13:48;;;;;;;0.73;0.50;;;24.20;65.20;;;;;;5052973;28;20822;-70
2023/05/11 03:16:20;;;;;;;0.70;0.70;;;24.10;65.20;;;;;;5055453;28;20515;-70
2023/05/11 03:18:49;;;;;;;0.97;0.87;;;24.10;65.20;;;;;;5055906;28;20529;-70
2023/05/11 03:21:20;;;;;;;0.63;0.63;;;24.20;65.10;;;;;;5062140;28;20487;-70
2023/05/11 03:23:49;;;;;;;0.87;0.87;;;24.10;65.20;;;;;;5069113;28;20822;-70
2023/05/11 03:26:20;;;;;;;1.03;1.00;;;24.10;65.10;;;;;;5055267;28;20518;-71
2023/05/11 03:28:50;;;;;;;0.87;0.87;;;24.10;65.20;;;;;;5056284;28;20447;-70
2023/05/11 03:31:20;;;;;;;0.80;0.63;;;24.10;65.10;;;;;;5056393;28;20444;-70
2023/05/11 03:33:48;;;;;;;0.83;0.83;;;24.10;65.20;;;;;;5074449;28;20960;-70
2023/05/11 03:36:17;;;;;;;1.13;0.60;;;24.10;65.10;;;;;;5055705;28;20961;-70
2023/05/11 03:38:48;;;;;;;0.80;0.80;;;24.10;65.10;;;;;;5056411;28;20466;-70
2023/05/11 03:41:19;;;;;;;3.63;0.77;;;24.10;65.10;;;;;;5056850;28;20446;-70
2023/05/11 03:43:52;;;;;;;2.13;0.83;;;24.10;65.10;;;;;;5055856;28;20451;-70
2023/05/11 03:46:24;;;;;;;0.97;0.97;;;24.10;65.10;;;;;;5054861;28;20461;-70
2023/05/11 03:48:53;;;;;;;1.07;1.07;;;24.10;65.10;;;;;;5056365;28;20456;-70
2023/05/11 03:51:25;;;;;;;0.83;0.80;;;24.10;65.10;;;;;;5055223;28;20471;-70
2023/05/11 03:53:53;;;;;;;0.70;0.70;;;24.10;65.10;;;;;;5074071;28;20892;-70
2023/05/11 03:56:22;;;;;;;1.30;0.80;;;24.10;65.10;;;;;;5072880;28;20461;-70
2023/05/11 03:58:52;;;;;;;0.60;0.60;;;24.10;65.10;;;;;;5055504;28;20476;-70
2023/05/11 04:01:22;;;;;;;0.90;0.80;;;24.10;65.10;;;;;;5067819;28;20507;-70
2023/05/11 04:03:53;;;;;;;0.80;0.60;;;24.10;65.10;;;;;;5056131;28;20549;-70
2023/05/11 04:06:23;;;;;;;0.83;0.60;;;24.10;65.00;;;;;;5054129;28;20463;-70
2023/05/11 04:08:59;;;;;;;0.80;0.80;;;24.10;65.10;;;;;;5056960;28;20455;-70
2023/05/11 04:11:29;;;;;;;1.00;1.00;;;24.10;65.10;;;;;;5056572;28;20459;-71
2023/05/11 04:13:57;;;;;;;0.80;0.80;;;24.10;65.10;;;;;;5073172;28;20465;-70
2023/05/11 04:16:26;;;;;;;0.60;0.60;;;24.10;65.10;;;;;;5061594;28;20548;-70
2023/05/11 04:18:55;;;;;;;0.60;0.60;;;24.10;65.00;;;;;;5063457;28;20458;-70
2023/05/11 04:21:23;;;;;;;0.80;0.80;;;24.10;65.10;;;;;;5054098;28;20483;-70
2023/05/11 04:23:51;;;;;;;0.80;0.80;;;24.10;65.00;;;;;;5071771;28;20849;-70
2023/05/11 04:26:19;;;;;;;0.60;0.60;;;24.10;65.00;;;;;;5053822;28;20482;-70
2023/05/11 04:28:47;;;;;;;0.80;0.73;;;24.10;65.00;;;;;;5054410;28;20536;-70
2023/05/11 04:31:16;;;;;;;0.83;0.83;;;24.10;65.00;;;;;;5052118;28;20505;-71
2023/05/11 04:33:45;;;;;;;0.70;0.60;;;24.10;65.00;;;;;;5059742;28;21025;-70
2023/05/11 04:36:14;;;;;;;0.77;0.70;;;24.10;65.00;;;;;;5050654;28;20506;-70
2023/05/11 04:38:42;;;;;;;0.80;0.80;;;24.10;65.10;;;;;;5053332;28;20472;-70
2023/05/11 04:41:10;;;;;;;0.60;0.60;;;24.10;65.00;;;;;;5056676;28;20460;-70
2023/05/11 04:43:40;;;;;;;0.80;0.80;;;24.10;65.00;;;;;;5061349;28;20464;-70
2023/05/11 04:46:10;;;;;;;4.30;1.03;;;24.10;65.00;;;;;;5049681;28;20467;-71
2023/05/11 04:48:38;;;;;;;0.80;0.60;;;24.10;65.00;;;;;;5051314;28;20447;-72
2023/05/11 04:51:08;;;;;;;0.83;0.70;;;24.10;65.00;;;;;;5054978;28;20466;-71
2023/05/11 04:53:41;;;;;;;0.80;0.80;;;24.10;65.00;;;;;;5050617;28;20842;-70
2023/05/11 04:56:10;;;;;;;1.50;0.77;;;24.10;65.00;;;;;;5052544;28;20554;-70
2023/05/11 04:58:38;;;;;;;0.50;0.50;;;24.10;65.00;;;;;;5071053;28;20479;-71
2023/05/11 05:01:07;;;;;;;1.83;0.87;;;24.10;65.00;;;;;;5063056;28;20554;-71
2023/05/11 05:03:35;;;;;;;0.60;0.60;;;24.10;65.00;;;;;;5041966;28;20472;-71
2023/05/11 05:06:03;;;;;;;1.53;0.73;;;24.10;65.00;;;;;;5044423;28;20471;-70
2023/05/11 05:08:33;;;;;;;0.80;0.80;;;24.10;64.90;;;;;;5061490;28;20543;-71
2023/05/11 05:11:01;;;;;;;1.23;0.70;;;24.10;65.00;;;;;;5070023;28;20543;-71
2023/05/11 05:13:29;;;;;;;0.67;0.60;;;24.10;65.00;;;;;;5058063;28;20478;-71
2023/05/11 05:15:58;;;;;;;1.87;0.90;;;24.10;65.00;;;;;;5052492;28;20470;-71
2023/05/11 05:18:26;;;;;;;0.90;0.90;;;24.10;65.00;;;;;;5050968;28;20801;-71
2023/05/11 05:20:54;;;;;;;0.53;0.53;;;24.10;65.00;;;;;;5049052;28;20471;-71
2023/05/11 05:23:25;;;;;;;2.53;1.00;;;24.10;65.00;;;;;;5051404;28;20520;-71
2023/05/11 05:25:54;;;;;;;0.73;0.73;;;24.10;65.00;;;;;;5040714;28;20563;-71
2023/05/11 05:28:23;;;;;;;2.97;0.70;;;24.10;65.00;;;;;;5058789;28;20452;-71
2023/05/11 05:30:51;;;;;;;0.80;0.80;;;24.10;65.00;;;;;;5048737;28;20510;-70
2023/05/11 05:33:20;;;;;;;1.07;0.97;;;24.10;65.00;;;;;;5042265;28;20912;-70
2023/05/11 05:35:49;;;;;;;1.57;0.90;;;24.10;65.00;;;;;;5051267;28;20463;-70
2023/05/11 05:38:17;;;;;;;0.70;0.70;;;24.10;65.00;;;;;;5051655;28;20547;-70
2023/05/11 05:40:46;;;;;;;0.80;0.80;;;24.10;65.00;;;;;;5069645;28;20498;-70
2023/05/11 05:43:17;;;;;;;0.90;0.90;;;24.10;65.00;;;;;;5050644;28;20462;-71
2023/05/11 05:45:46;;;;;;;0.87;0.80;;;24.10;65.00;;;;;;5038376;28;21177;-70
2023/05/11 05:48:14;;;;;;;1.10;1.00;;;24.10;65.00;;;;;;5049607;28;20521;-70
2023/05/11 05:50:43;;;;;;;1.50;0.80;;;24.10;65.00;;;;;;5049651;28;20475;-70
2023/05/11 05:53:11;;;;;;;1.30;1.00;;;24.10;65.00;;;;;;5063945;28;20509;-70
2023/05/11 05:55:39;;;;;;;0.67;0.67;;;24.10;65.00;;;;;;5049634;28;20964;-70
2023/05/11 05:58:08;;;;;;;0.90;0.90;;;24.10;65.00;;;;;;5064385;28;20955;-70
2023/05/11 06:00:38;;;;;;;6.43;2.77;;;24.10;65.00;;;;;;5048374;28;20532;-70
2023/05/11 06:03:09;;;;;;;8.20;3.07;;;24.10;66.10;;;;;;5042197;28;20547;-70
2023/05/11 06:05:37;;;;;;;5.10;2.60;;;24.10;69.70;;;;;;5050174;28;20869;-70
2023/05/11 06:08:06;;;;;;;4.10;2.13;;;24.10;68.70;;;;;;5048520;28;20796;-71
2023/05/11 06:10:39;;;;;;;6.13;1.73;;;24.10;67.30;;;;;;5049824;28;20453;-70
2023/05/11 06:13:09;;;;;;;8.13;2.87;;;24.10;66.30;;;;;;5044123;28;20472;-71
2023/05/11 06:15:41;;;;;;;2.03;1.83;;;24.10;66.10;;;;;;5055042;28;20922;-71
2023/05/11 06:18:30;;;;;;;2.30;1.47;;;24.10;65.90;;;;;;5035057;28;20463;-71
2023/05/11 06:21:00;;;;;;;2.27;1.47;;;24.10;65.90;;;;;;5049919;28;20830;-70
2023/05/11 06:23:31;;;;;;;1.30;1.20;;;24.10;65.80;;;;;;5047988;28;20473;-71
2023/05/11 06:25:59;;;;;;;4.27;1.50;;;24.10;65.70;;;;;;5061891;28;20487;-71
2023/05/11 06:28:29;;;;;;;6.00;1.30;;;24.10;65.60;;;;;;5031646;28;20863;-71
2023/05/11 06:31:03;;;;;;;2.00;1.30;;;24.10;65.60;;;;;;5045334;28;20473;-71
2023/05/11 06:33:35;;;;;;;2.50;1.43;;;24.10;65.40;;;;;;5043684;28;20963;-70
2023/05/11 06:36:08;;;;;;;2.03;1.70;;;24.10;65.40;;;;;;5051249;28;20469;-71
2023/05/11 06:38:36;;;;;;;2.63;1.30;;;24.10;65.30;;;;;;5067940;28;20800;-71
2023/05/11 06:41:05;;;;;;;3.90;1.57;;;24.20;65.20;;;;;;5050354;28;20868;-71
2023/05/11 06:43:33;;;;;;;3.13;1.37;;;24.20;65.20;;;;;;5054437;28;20447;-71
2023/05/11 06:46:04;;;;;;;2.97;1.60;;;24.20;65.10;;;;;;5049488;28;20474;-70
2023/05/11 06:48:33;;;;;;;1.43;1.33;;;24.20;65.00;;;;;;5058774;28;20462;-71
2023/05/11 06:51:01;;;;;;;1.63;1.10;;;24.20;65.00;;;;;;5055959;28;20950;-71
2023/05/11 06:53:29;;;;;;;1.90;1.10;;;24.20;65.00;;;;;;5073780;28;20498;-71
2023/05/11 06:55:58;;;;;;;1.70;1.40;;;24.20;64.90;;;;;;5074636;28;20472;-70
2023/05/11 06:58:26;;;;;;;2.33;1.40;;;24.20;64.90;;;;;;5073273;28;20446;-70
2023/05/11 07:00:55;;;;;;;1.43;1.33;;;24.20;64.80;;;;;;5073354;28;20450;-70
2023/05/11 07:03:25;;;;;;;2.40;1.20;;;24.20;64.80;;;;;;5073434;28;20581;-70
2023/05/11 07:05:53;;;;;;;1.77;1.33;;;24.20;64.70;;;;;;5074622;28;20476;-70
2023/05/11 07:08:21;;;;;;;2.30;1.73;;;24.20;64.70;;;;;;5074797;28;20484;-70
2023/05/11 07:10:49;;;;;;;1.93;1.20;;;24.20;64.60;;;;;;5075084;28;20421;-70
2023/05/11 07:13:17;;;;;;;2.40;1.23;;;24.20;64.60;;;;;;5074248;28;20464;-70
2023/05/11 07:15:45;;;;;;;1.00;1.00;;;24.20;64.50;;;;;;5073992;28;20477;-70
2023/05/11 07:18:14;;;;;;;3.13;1.40;;;24.20;64.50;;;;;;5069183;28;20465;-70
2023/05/11 07:20:48;;;;;;;2.30;1.30;;;24.20;64.50;;;;;;5060535;28;20457;-70
2023/05/11 07:23:16;;;;;;;2.27;1.00;;;24.20;64.40;;;;;;5073097;28;20438;-70
2023/05/11 07:25:45;;;;;;;2.37;1.60;;;24.20;64.40;;;;;;5074132;28;20509;-71
2023/05/11 07:28:13;;;;;;;2.10;1.30;;;24.20;64.40;;;;;;5073044;28;20848;-70
2023/05/11 07:30:41;;;;;;;3.80;1.07;;;24.20;64.30;;;;;;5066257;28;21011;-70
2023/05/11 07:33:09;;;;;;;1.20;1.17;;;24.20;64.30;;;;;;5067823;28;20868;-70
2023/05/11 07:35:38;;;;;;;3.70;1.00;;;24.20;64.30;;;;;;5070923;28;21045;-70
2023/05/11 07:38:10;;;;;;;1.10;1.00;;;24.20;64.20;;;;;;5065497;28;20442;-71
2023/05/11 07:40:38;;;;;;;1.60;0.73;;;24.20;64.20;;;;;;5074161;28;20475;-71
2023/05/11 07:43:07;;;;;;;1.80;1.40;;;24.20;64.20;;;;;;5073209;28;20446;-70
2023/05/11 07:45:35;;;;;;;2.33;1.20;;;24.20;64.10;;;;;;5072902;28;20809;-70
2023/05/11 07:48:04;;;;;;;1.40;1.30;;;24.20;64.10;;;;;;5082067;28;20465;-71
2023/05/11 07:50:32;;;;;;;1.10;1.00;;;24.20;64.10;;;;;;5073987;28;20444;-70
2023/05/11 07:53:00;;;;;;;1.23;0.97;;;24.20;64.00;;;;;;5074011;28;20426;-71
2023/05/11 07:55:30;;;;;;;0.70;0.60;;;24.20;64.00;;;;;;5073584;28;21019;-71
2023/05/11 07:57:58;;;;;;;1.70;0.80;;;24.20;64.00;;;;;;5071938;28;20891;-71
2023/05/11 08:00:26;;;;;;;2.23;1.10;;;24.20;63.90;;;;;;5053658;28;20452;-70
2023/05/11 08:02:55;;;;;;;1.20;1.20;;;24.30;63.90;;;;;;5053438;28;20478;-70
2023/05/11 08:05:23;;;;;;;1.20;0.70;;;24.30;63.80;;;;;;5068705;28;20456;-71
2023/05/11 08:07:52;;;;;;;1.80;1.07;;;24.30;63.80;;;;;;5073682;28;20509;-71
2023/05/11 08:10:20;;;;;;;1.43;0.83;;;24.30;63.80;;;;;;5072681;28;20488;-71
2023/05/11 08:12:50;;;;;;;1.30;1.13;;;24.30;63.70;;;;;;5050605;28;20509;-71
2023/05/11 08:15:18;;;;;;;1.13;0.90;;;24.30;63.70;;;;;;5053527;28;20474;-71
2023/05/11 08:17:47;;;;;;;1.40;0.90;;;24.30;63.60;;;;;;5065396;28;20444;-71
2023/05/11 08:20:15;;;;;;;0.80;0.80;;;24.30;63.60;;;;;;5073212;28;20439;-71
2023/05/11 08:22:44;;;;;;;0.97;0.97;;;24.30;63.60;;;;;;5073684;28;20455;-71
2023/05/11 08:25:13;;;;;;;1.20;1.10;;;24.30;63.50;;;;;;5073148;28;20523;-71
2023/05/11 08:27:41;;;;;;;0.73;0.73;;;24.40;63.50;;;;;;5072793;28;20431;-71
2023/05/11 08:30:12;;;;;;;1.20;0.90;;;24.40;63.50;;;;;;5072546;28;20443;-71
2023/05/11 08:32:40;;;;;;;1.03;0.90;;;24.40;63.50;;;;;;5073048;28;20442;-71
2023/05/11 08:35:12;;;;;;;1.40;1.10;;;24.40;63.50;;;;;;5073001;28;20971;-70
2023/05/11 08:37:40;;;;;;;0.80;0.80;;;24.40;63.40;;;;;;5073173;28;20430;-71
2023/05/11 08:40:11;;;;;;;0.90;0.80;;;24.40;63.40;;;;;;5072869;28;20447;-70
2023/05/11 08:42:47;;;;;;;1.20;1.10;;;24.40;63.40;;;;;;5072460;28;20431;-70
2023/05/11 08:45:18;;;;;;;0.93;0.77;;;24.40;63.40;;;;;;5072635;28;20526;-70
2023/05/11 08:47:48;;;;;;;1.07;0.80;;;24.40;63.40;;;;;;5073150;28;20435;-70
2023/05/11 08:50:16;;;;;;;1.23;0.97;;;24.40;63.40;;;;;;5072959;28;20521;-70
2023/05/11 08:52:45;;;;;;;2.03;0.87;;;24.40;63.30;;;;;;5072032;28;20486;-70
2023/05/11 08:55:13;;;;;;;0.80;0.80;;;24.40;63.30;;;;;;5071895;28;20964;-70
2023/05/11 08:57:45;;;;;;;0.87;0.77;;;24.40;63.30;;;;;;5072843;28;20449;-70
2023/05/11 09:00:15;;;;;;;1.07;0.80;;;24.40;63.30;;;;;;5072590;28;20470;-71
2023/05/11 09:02:45;;;;;;;1.23;0.90;;;24.40;63.30;;;;;;5062472;28;20495;-70
2023/05/11 09:05:14;;;;;;;0.90;0.90;;;24.40;63.30;;;;;;5060993;28;20794;-70
2023/05/11 09:07:46;;;;;;;0.80;0.80;;;24.40;63.20;;;;;;5072673;28;20439;-70
2023/05/11 09:10:15;;;;;;;1.43;1.10;;;24.40;63.20;;;;;;5072225;28;20513;-70
2023/05/11 09:12:43;;;;;;;3.97;1.00;;;24.40;63.20;;;;;;5072552;28;20530;-70
2023/05/11 09:15:12;;;;;;;0.93;0.93;;;24.40;63.20;;;;;;5071990;28;20471;-70
2023/05/11 09:17:40;;;;;;;2.00;0.90;;;24.40;63.20;;;;;;5072075;28;20433;-70
2023/05/11 09:20:11;;;;;;;1.20;0.87;;;24.40;63.20;;;;;;5071680;28;20448;-70
2023/05/11 09:22:43;;;;;;;0.93;0.93;;;24.40;63.10;;;;;;5072047;28;20851;-71
2023/05/11 09:25:13;;;;;;;0.63;0.63;;;24.40;63.10;;;;;;5072092;28;20547;-71
2023/05/11 09:27:43;;;;;;;0.90;0.90;;;24.40;63.10;;;;;;5071823;28;20797;-71
2023/05/11 09:30:12;;;;;;;0.90;0.90;;;24.40;63.10;;;;;;5053580;28;20832;-70
2023/05/11 09:32:48;;;;;;;1.23;1.13;;;24.40;63.10;;;;;;5070667;28;20911;-71
2023/05/11 09:35:22;;;;;;;0.60;0.60;;;24.40;63.10;;;;;;5051962;28;20961;-71
2023/05/11 09:38:03;;;;;;;0.80;0.80;;;24.40;63.10;;;;;;5054307;28;20472;-71
2023/05/11 09:40:32;;;;;;;0.80;0.80;;;24.50;63.00;;;;;;5072337;28;20523;-70
2023/05/11 09:43:02;;;;;;;0.70;0.70;;;24.50;63.00;;;;;;5071303;28;20545;-71
2023/05/11 09:45:38;;;;;;;0.60;0.60;;;24.50;63.00;;;;;;5071334;28;20452;-71
2023/05/11 09:48:13;;;;;;;0.70;0.70;;;24.50;63.00;;;;;;5059863;28;20491;-70
2023/05/11 09:50:43;;;;;;;0.70;0.70;;;24.50;63.00;;;;;;5059472;28;21016;-70
2023/05/11 09:53:11;;;;;;;0.97;0.97;;;24.40;63.00;;;;;;5045272;28;20551;-71
2023/05/11 09:55:50;;;;;;;0.87;0.87;;;24.50;63.00;;;;;;5071573;28;20474;-70
2023/05/11 09:58:18;;;;;;;0.80;0.80;;;24.40;63.00;;;;;;5056974;28;20457;-70
2023/05/11 10:00:50;;;;;;;0.70;0.70;;;24.40;63.00;;;;;;5070565;28;20451;-70
2023/05/11 10:03:18;;;;;;;0.70;0.70;;;24.50;63.00;;;;;;5071538;28;20525;-70
2023/05/11 10:05:58;;;;;;;1.50;0.93;;;24.40;63.00;;;;;;5066965;28;20460;-71
2023/05/11 10:08:29;;;;;;;1.10;0.90;;;24.50;62.90;;;;;;5071723;28;21005;-68
2023/05/11 10:10:57;;;;;;;1.10;1.10;;;24.50;62.90;;;;;;5070258;28;20476;-68
2023/05/11 10:13:26;;;;;;;1.23;1.00;;;24.50;63.20;;;;;;5068917;28;20550;-68
2023/05/11 10:15:56;;;;;;;0.77;0.77;;;24.40;63.50;;;;;;5074275;28;20478;-68
2023/05/11 10:18:25;;;;;;;1.10;0.80;;;24.40;63.60;;;;;;5057765;28;20922;-68
2023/05/11 10:20:54;;;;;;;1.27;0.80;;;24.40;63.60;;;;;;5070533;28;20453;-69
2023/05/11 10:23:25;;;;;;;1.00;0.90;;;24.50;63.60;;;;;;5069052;28;20951;-69
2023/05/11 10:25:55;;;;;;;0.83;0.83;;;24.50;63.60;;;;;;5071116;28;20507;-70
2023/05/11 10:28:23;;;;;;;3.40;1.20;;;24.50;63.60;;;;;;5066392;28;20454;-68
2023/05/11 10:30:52;;;;;;;0.90;0.90;;;24.50;63.50;;;;;;5070566;28;20456;-68
2023/05/11 10:33:20;;;;;;;1.00;1.00;;;24.50;63.60;;;;;;5051926;28;20534;-68
2023/05/11 10:35:50;;;;;;;0.90;0.90;;;24.60;63.50;;;;;;5055317;28;20523;-67
2023/05/11 10:38:21;;;;;;;1.10;1.00;;;24.60;63.50;;;;;;5070675;28;20930;-68
2023/05/11 10:40:53;;;;;;;1.33;1.10;;;24.60;63.40;;;;;;5070717;28;20449;-68
2023/05/11 10:43:51;;;;;;;1.13;0.80;;;24.60;63.40;;;;;;5070052;28;20449;-69
2023/05/11 10:46:40;;;;;;;2.20;1.20;;;24.60;63.30;;;;;;5067817;28;20457;-69
2023/05/11 10:49:45;;;;;;;0.83;0.83;;;24.70;63.30;;;;;;5069636;28;20442;-69
2023/05/11 10:52:28;;;;;;;1.47;1.20;;;24.70;63.20;;;;;;5067955;28;20553;-68
2023/05/11 10:55:10;;;;;;;2.90;1.30;;;24.70;63.20;;;;;;5070126;28;20450;-68
2023/05/11 10:58:03;;;;;;;1.10;1.00;;;24.70;63.00;;;;;;5068793;28;20938;-68
2023/05/11 11:01:16;;;;;;;1.40;1.30;;;24.80;63.00;;;;;;5070739;28;20546;-68
2023/05/11 11:03:57;;;;;;;1.10;1.10;;;24.80;63.00;;;;;;5052870;28;20546;-68
2023/05/11 11:06:27;;;;;;;0.90;0.90;;;24.80;62.90;;;;;;5079574;28;20458;-70
2023/05/11 11:09:00;;;;;;;1.40;1.30;;;24.80;63.00;;;;;;5065079;28;20452;-69
2023/05/11 11:11:30;;;;;;;2.50;1.20;;;24.80;63.00;;;;;;5063603;28;20470;-70
2023/05/11 11:14:02;;;;;;;1.23;1.13;;;24.80;62.90;;;;;;5039518;28;20543;-68
2023/05/11 11:16:31;;;;;;;1.67;1.03;;;24.80;62.80;;;;;;5052968;28;20902;-69
2023/05/11 11:19:37;;;;;;;1.77;1.50;;;24.90;62.60;;;;;;5071959;28;20451;-69
2023/05/11 11:22:06;;;;;;;1.20;1.10;;;24.80;62.50;;;;;;5066455;28;20460;-69
2023/05/11 11:24:45;;;;;;;1.23;1.13;;;24.80;62.30;;;;;;5060603;28;20453;-68
2023/05/11 11:27:14;;;;;;;1.20;1.10;;;24.80;62.30;;;;;;5070444;28;20500;-68
2023/05/11 11:30:17;;;;;;;2.93;1.10;;;24.80;62.20;;;;;;5073999;28;20503;-68
2023/05/11 11:32:46;;;;;;;1.10;1.10;;;24.80;62.20;;;;;;5064550;28;20465;-68
2023/05/11 11:35:47;;;;;;;1.00;0.87;;;24.80;62.30;;;;;;5070726;28;20471;-68
2023/05/11 11:38:17;;;;;;;1.57;1.47;;;24.80;62.30;;;;;;5075988;28;20471;-68
2023/05/11 11:40:48;;;;;;;1.43;1.33;;;24.80;62.30;;;;;;5064663;28;20801;-68
2023/05/11 11:43:21;;;;;;;1.53;1.10;;;24.70;62.30;;;;;;5069993;28;20499;-69
2023/05/11 11:45:55;;;;;;;1.27;1.17;;;24.70;62.30;;;;;;5068693;28;20558;-69
2023/05/11 11:48:30;;;;;;;1.47;1.33;;;24.70;62.50;;;;;;5054088;28;20483;-69
2023/05/11 11:51:04;;;;;;;2.30;1.70;;;24.70;62.50;;;;;;5062366;28;21311;-69
2023/05/11 11:54:02;;;;;;;1.87;1.77;;;24.70;62.50;;;;;;5061515;28;20960;-69
2023/05/11 11:56:42;;;;;;;3.27;1.70;;;24.70;62.50;;;;;;5065849;28;20475;-69
2023/05/11 11:59:17;;;;;;;2.53;1.70;;;24.70;62.60;;;;;;5078039;28;20464;-70
2023/05/11 12:01:53;;;;;;;1.50;1.40;;;24.70;62.60;;;;;;5059882;28;20448;-74
2023/05/11 12:04:44;;;;;;;2.00;1.90;;;24.60;62.60;;;;;;5061526;28;20457;-73
2023/05/11 12:07:13;;;;;;;2.63;1.87;;;24.60;63.20;;;;;;5068681;28;20512;-74
2023/05/11 12:09:44;;;;;;;2.30;1.90;;;24.60;63.30;;;;;;5062539;28;20468;-72
2023/05/11 12:12:13;;;;;;;3.63;1.50;;;24.60;63.40;;;;;;5077222;28;20518;-74
2023/05/11 12:14:47;;;;;;;1.97;1.43;;;24.60;63.50;;;;;;5059602;28;20481;-74
2023/05/11 12:17:24;;;;;;;1.63;1.53;;;24.60;63.60;;;;;;5079987;28;20484;-72
2023/05/11 12:19:53;;;;;;;2.60;1.97;;;24.60;63.70;;;;;;5050646;28;20987;-72
2023/05/11 12:22:24;;;;;;;1.63;1.53;;;24.70;63.70;;;;;;5070400;28;20490;-73
2023/05/11 12:24:57;;;;;;;1.63;1.50;;;24.70;63.60;;;;;;5062717;28;20482;-72
2023/05/11 12:27:27;;;;;;;3.20;1.83;;;24.70;63.50;;;;;;5070574;28;20975;-73
2023/05/11 12:29:57;;;;;;;4.10;1.77;;;24.80;63.50;;;;;;5058076;28;20467;-74
2023/05/11 12:32:28;;;;;;;1.50;1.40;;;24.80;63.50;;;;;;5078875;28;20446;-74
2023/05/11 12:35:01;;;;;;;1.77;1.60;;;24.90;63.50;;;;;;5079774;28;20872;-72
2023/05/11 12:37:30;;;;;;;1.63;1.40;;;24.90;63.50;;;;;;5043611;28;20475;-73
2023/05/11 12:39:59;;;;;;;1.60;1.50;;;24.90;63.40;;;;;;5049573;28;20799;-74
2023/05/11 12:42:28;;;;;;;1.53;1.43;;;25.00;63.40;;;;;;5052347;28;20567;-73
2023/05/11 12:44:56;;;;;;;3.23;1.93;;;25.00;63.40;;;;;;5066533;28;21220;-74
2023/05/11 12:47:25;;;;;;;1.90;1.80;;;25.00;63.50;;;;;;5072721;28;20545;-73
2023/05/11 12:49:56;;;;;;;1.80;1.50;;;25.00;63.40;;;;;;5044331;28;21288;-73
2023/05/11 12:52:24;;;;;;;1.80;1.47;;;25.00;63.50;;;;;;5075120;28;20460;-73
2023/05/11 12:54:58;;;;;;;4.43;2.20;;;25.00;63.50;;;;;;5060569;28;20514;-73
2023/05/11 12:57:30;;;;;;;4.90;1.60;;;25.00;63.50;;;;;;5077622;28;20506;-73
2023/05/11 13:00:11;;;;;;;3.37;2.00;;;25.00;63.50;;;;;;5074254;28;20498;-73
2023/05/11 13:02:49;;;;;;;2.70;2.10;;;25.00;63.50;;;;;;5073347;28;20458;-75
2023/05/11 13:05:24;;;;;;;2.67;1.40;;;25.00;63.70;;;;;;5078529;28;20457;-76
2023/05/11 13:07:58;;;;;;;2.93;1.90;;;25.00;63.60;;;;;;5078211;28;20486;-75
2023/05/11 13:10:27;;;;;;;2.70;1.20;;;25.00;63.50;;;;;;5079357;28;20486;-74